Time;durP1;ratioP1;P1;durP2;ratioP2;P2;SDS_P1;SDS_P2;PMS_P1;PMS_P2;Temp;Humidity;BMP_temperature;BMP_pressure;BME280_temperature;BME280_humidity;BME280_pressure;Samples;Min_cycle;Max_cycle;Signal;HPM_P1;HPM_P2
2022/10/13 00:00:53;;;;;;;9.53;6.37;;;;;;;13.00;74.74;100332.16;5071760;28;20911;-71
2022/10/13 00:03:19;;;;;;;11.83;6.57;;;;;;;13.01;74.80;100328.47;5071745;28;20199;-71
2022/10/13 00:05:49;;;;;;;7.47;6.63;;;;;;;12.99;74.66;100330.50;5071856;28;20199;-71
2022/10/13 00:08:19;;;;;;;6.80;6.30;;;;;;;12.94;74.13;100335.53;5071634;28;20198;-71
2022/10/13 00:10:47;;;;;;;10.10;6.03;;;;;;;12.93;74.70;100335.72;5072162;28;20318;-71
2022/10/13 00:13:14;;;;;;;7.70;7.00;;;;;;;12.83;74.50;100338.72;5071969;28;20249;-71
2022/10/13 00:15:43;;;;;;;7.60;6.77;;;;;;;12.70;75.17;100333.25;5071736;28;20705;-71
2022/10/13 00:18:10;;;;;;;7.73;7.00;;;;;;;12.56;75.77;100331.47;5071982;28;20199;-71
2022/10/13 00:20:41;;;;;;;7.93;6.37;;;;;;;12.46;76.51;100332.78;5071794;28;20199;-72
2022/10/13 00:23:09;;;;;;;8.77;6.87;;;;;;;12.43;76.70;100334.00;5072035;28;20244;-71
2022/10/13 00:25:40;;;;;;;8.47;7.67;;;;;;;12.44;76.82;100329.47;5071611;28;20195;-72
2022/10/13 00:28:07;;;;;;;9.53;7.10;;;;;;;12.38;77.46;100331.06;5071636;28;20271;-72
2022/10/13 00:30:34;;;;;;;7.47;6.87;;;;;;;12.36;77.59;100327.75;5071628;28;20666;-72
2022/10/13 00:33:01;;;;;;;13.43;7.07;;;;;;;12.35;77.76;100331.44;5071544;28;20553;-71
2022/10/13 00:35:27;;;;;;;10.63;7.37;;;;;;;12.38;78.25;100325.72;5072150;28;20275;-71
2022/10/13 00:37:54;;;;;;;8.73;6.77;;;;;;;12.42;78.04;100326.19;5071322;28;20620;-72
2022/10/13 00:40:22;;;;;;;8.67;7.87;;;;;;;12.37;78.47;100331.25;5071829;28;20217;-72
2022/10/13 00:42:49;;;;;;;8.17;6.90;;;;;;;12.25;79.00;100332.75;5071728;28;20249;-72
2022/10/13 00:45:23;;;;;;;7.63;7.03;;;;;;;12.26;79.60;100332.56;5074629;28;20735;-72
2022/10/13 00:47:54;;;;;;;8.07;7.40;;;;;;;12.27;79.38;100333.38;5075748;28;20622;-72
2022/10/13 00:50:24;;;;;;;7.67;7.10;;;;;;;12.23;79.51;100338.25;5075433;28;20604;-73
2022/10/13 00:52:52;;;;;;;7.10;6.50;;;;;;;12.17;79.84;100338.97;5075293;28;20663;-72
2022/10/13 00:55:25;;;;;;;7.47;6.87;;;;;;;12.11;80.21;100329.06;5075482;28;20201;-72
2022/10/13 00:57:59;;;;;;;8.77;7.10;;;;;;;12.07;80.16;100327.78;5075747;28;20253;-72
2022/10/13 01:00:26;;;;;;;7.43;6.93;;;;;;;12.07;80.39;100326.94;5076087;28;20189;-73
2022/10/13 01:02:53;;;;;;;11.73;7.97;;;;;;;12.05;80.27;100324.47;5055686;28;20667;-73
2022/10/13 01:05:21;;;;;;;9.47;8.53;;;;;;;12.07;80.90;100327.78;5055121;28;20195;-72
2022/10/13 01:07:49;;;;;;;9.90;9.10;;;;;;;11.98;81.11;100334.22;5069921;28;20752;-72
2022/10/13 01:10:23;;;;;;;9.57;8.67;;;;;;;11.91;83.02;100325.31;5075085;28;20190;-72
2022/10/13 01:13:00;;;;;;;13.70;10.23;;;;;;;11.78;83.47;100316.31;5074850;28;20663;-72
2022/10/13 01:15:32;;;;;;;11.10;9.43;;;;;;;11.77;84.12;100315.50;5075967;28;20190;-72
2022/10/13 01:18:10;;;;;;;15.43;10.63;;;;;;;11.75;84.78;100325.50;5075095;28;20555;-72
2022/10/13 01:20:52;;;;;;;11.17;10.07;;;;;;;11.70;85.32;100322.56;5074832;28;20613;-72
2022/10/13 01:23:54;;;;;;;11.87;10.73;;;;;;;11.72;86.43;100315.22;5075388;28;20186;-72
2022/10/13 01:26:48;;;;;;;12.33;11.13;;;;;;;11.65;86.77;100316.97;5049188;28;20255;-72
2022/10/13 01:29:50;;;;;;;14.80;12.23;;;;;;;11.53;88.00;100315.75;5074854;28;20198;-72
2022/10/13 01:32:25;;;;;;;16.37;12.27;;;;;;;11.47;89.07;100319.09;5074904;28;20194;-72
2022/10/13 01:34:56;;;;;;;14.47;12.97;;;;;;;11.48;89.21;100312.81;5074908;28;20189;-72
2022/10/13 01:37:30;;;;;;;16.33;12.70;;;;;;;11.48;89.79;100303.97;5074490;28;20637;-71
2022/10/13 01:40:04;;;;;;;14.70;11.70;;;;;;;11.44;90.46;100308.84;5074731;28;20261;-71
2022/10/13 01:42:36;;;;;;;13.97;12.50;;;;;;;11.49;90.83;100308.28;5075459;28;20190;-71
2022/10/13 01:45:07;;;;;;;17.17;13.20;;;;;;;11.50;91.54;100308.09;5074280;28;20652;-71
2022/10/13 01:47:35;;;;;;;13.73;12.43;;;;;;;11.53;91.90;100301.59;5074350;28;20195;-72
2022/10/13 01:50:03;;;;;;;18.50;14.03;;;;;;;11.61;91.80;100299.72;5074155;28;20223;-73
2022/10/13 01:52:34;;;;;;;18.60;13.57;;;;;;;11.66;91.53;100302.66;5074566;28;20251;-72
2022/10/13 01:55:06;;;;;;;16.67;13.67;;;;;;;11.74;91.00;100299.91;5073632;28;20252;-72
2022/10/13 01:57:37;;;;;;;14.93;13.07;;;;;;;11.84;90.74;100300.44;5074988;28;20205;-72
2022/10/13 02:00:09;;;;;;;17.20;13.40;;;;;;;11.77;90.15;100304.88;5074246;28;20244;-71
2022/10/13 02:02:41;;;;;;;23.17;13.87;;;;;;;11.68;90.50;100305.94;5073979;28;20191;-71
2022/10/13 02:05:19;;;;;;;14.57;13.17;;;;;;;11.58;90.89;100300.03;5073998;28;20613;-74
2022/10/13 02:07:53;;;;;;;22.63;13.17;;;;;;;11.56;90.89;100295.91;5073958;28;20190;-73
2022/10/13 02:10:22;;;;;;;14.60;12.70;;;;;;;11.55;90.79;100295.06;5074075;28;20222;-72
2022/10/13 02:12:53;;;;;;;14.77;13.27;;;;;;;11.51;90.94;100288.47;5074181;28;20201;-72
2022/10/13 02:15:24;;;;;;;19.53;12.23;;;;;;;11.51;90.94;100291.13;5074657;28;20186;-72
2022/10/13 02:17:51;;;;;;;14.37;12.87;;;;;;;11.56;91.01;100301.25;5074786;28;20209;-72
2022/10/13 02:20:20;;;;;;;15.47;12.43;;;;;;;11.63;90.15;100296.88;5073690;28;20603;-72
2022/10/13 02:22:54;;;;;;;17.53;13.77;;;;;;;11.63;89.63;100292.38;5074151;28;20532;-73
2022/10/13 02:25:21;;;;;;;15.37;13.30;;;;;;;11.67;90.36;100298.97;5073544;28;20611;-73
2022/10/13 02:27:48;;;;;;;16.70;12.50;;;;;;;11.64;90.26;100294.00;5073977;28;20200;-72
2022/10/13 02:30:22;;;;;;;20.20;13.50;;;;;;;11.67;89.42;100296.31;5073646;28;20198;-73
2022/10/13 02:32:49;;;;;;;15.03;11.90;;;;;;;11.69;89.12;100293.47;5074611;28;20607;-73
2022/10/13 02:35:16;;;;;;;15.33;13.60;;;;;;;11.71;88.71;100289.63;5073631;28;20198;-73
2022/10/13 02:37:43;;;;;;;20.70;14.00;;;;;;;11.73;88.80;100298.25;5073260;28;20793;-73
2022/10/13 02:40:10;;;;;;;22.37;14.40;;;;;;;11.72;88.68;100301.09;5073227;28;20631;-72
2022/10/13 02:42:37;;;;;;;21.33;14.40;;;;;;;11.73;88.41;100295.59;5073158;28;20699;-72
2022/10/13 02:45:04;;;;;;;16.70;14.27;;;;;;;11.75;88.49;100301.53;5073364;28;20194;-72
2022/10/13 02:47:32;;;;;;;17.97;13.30;;;;;;;11.76;88.32;100297.88;5073603;28;20649;-72
2022/10/13 02:49:59;;;;;;;17.93;12.73;;;;;;;11.74;87.42;100299.91;5073293;28;20257;-72
2022/10/13 02:52:26;;;;;;;18.37;14.33;;;;;;;11.75;88.23;100301.53;5073069;28;20739;-73
2022/10/13 02:54:52;;;;;;;16.73;13.37;;;;;;;11.71;88.25;100294.13;5073233;28;20252;-72
2022/10/13 02:57:19;;;;;;;16.40;13.70;;;;;;;11.76;87.87;100297.88;5073419;28;20558;-73
2022/10/13 02:59:46;;;;;;;21.40;13.80;;;;;;;11.76;87.64;100297.06;5072835;28;20666;-72
2022/10/13 03:02:13;;;;;;;17.33;13.80;;;;;;;11.76;87.52;100287.22;5058850;28;20203;-72
2022/10/13 03:04:41;;;;;;;19.77;14.03;;;;;;;11.76;87.77;100292.53;5052716;28;20629;-73
2022/10/13 03:07:07;;;;;;;20.43;13.30;;;;;;;11.70;87.22;100295.94;5061927;28;20198;-73
2022/10/13 03:09:34;;;;;;;21.70;13.50;;;;;;;11.61;87.81;100291.75;5073286;28;20190;-73
2022/10/13 03:12:02;;;;;;;18.33;13.60;;;;;;;11.46;88.33;100290.84;5073188;28;20280;-72
2022/10/13 03:14:28;;;;;;;16.23;13.60;;;;;;;11.36;89.30;100290.31;5072490;28;20197;-72
2022/10/13 03:16:55;;;;;;;17.63;12.83;;;;;;;11.34;89.64;100289.66;5072499;28;20218;-72
2022/10/13 03:19:22;;;;;;;14.13;12.60;;;;;;;11.30;89.45;100288.34;5072715;28;20194;-72
2022/10/13 03:21:50;;;;;;;14.77;12.97;;;;;;;11.20;89.14;100279.81;5072787;28;20248;-72
2022/10/13 03:24:17;;;;;;;17.17;13.03;;;;;;;11.27;89.68;100293.22;5073360;28;20251;-72
2022/10/13 03:26:43;;;;;;;22.63;14.37;;;;;;;11.22;89.50;100285.78;5072239;28;20210;-72
2022/10/13 03:29:13;;;;;;;17.57;13.80;;;;;;;11.18;89.14;100287.13;5072490;28;20196;-72
2022/10/13 03:31:40;;;;;;;16.70;13.53;;;;;;;11.22;88.52;100288.44;5072501;28;20198;-72
2022/10/13 03:34:07;;;;;;;16.47;13.30;;;;;;;11.22;88.47;100288.44;5072710;28;20202;-73
2022/10/13 03:36:33;;;;;;;17.80;13.13;;;;;;;11.21;88.74;100286.78;5072088;28;20244;-73
2022/10/13 03:39:02;;;;;;;23.00;13.70;;;;;;;11.24;88.53;100281.13;5072575;28;20188;-73
2022/10/13 03:41:28;;;;;;;18.23;14.43;;;;;;;11.24;88.17;100283.78;5072951;28;20194;-72
2022/10/13 03:43:55;;;;;;;16.87;13.80;;;;;;;11.24;88.03;100277.63;5072903;28;20195;-73
2022/10/13 03:46:24;;;;;;;23.43;13.67;;;;;;;11.21;87.84;100286.78;5071935;28;20197;-73
2022/10/13 03:48:51;;;;;;;18.53;13.17;;;;;;;11.18;88.01;100276.50;5072796;28;20353;-72
2022/10/13 03:51:19;;;;;;;18.67;14.50;;;;;;;11.18;88.33;100276.50;5072275;28;20193;-72
2022/10/13 03:53:47;;;;;;;16.77;14.03;;;;;;;11.12;88.33;100276.41;5071933;28;20567;-73
2022/10/13 03:56:18;;;;;;;20.13;14.23;;;;;;;11.01;88.59;100277.66;5071793;28;20202;-73
2022/10/13 03:58:44;;;;;;;15.37;13.53;;;;;;;11.01;88.67;100275.00;5072542;28;20265;-74
2022/10/13 04:01:13;;;;;;;18.40;14.10;;;;;;;11.02;89.13;100274.00;5071574;28;20214;-73
2022/10/13 04:03:40;;;;;;;15.70;13.37;;;;;;;10.99;88.76;100277.84;5072201;28;20194;-73
2022/10/13 04:06:07;;;;;;;18.47;14.00;;;;;;;10.98;89.04;100272.69;5072220;28;20193;-73
2022/10/13 04:08:34;;;;;;;19.70;13.97;;;;;;;10.99;88.82;100279.69;5072144;28;20257;-73
2022/10/13 04:11:02;;;;;;;19.73;14.93;;;;;;;10.95;88.83;100278.41;5071727;28;20287;-73
2022/10/13 04:13:30;;;;;;;32.57;15.40;;;;;;;10.90;89.49;100281.56;5071462;28;20249;-74
2022/10/13 04:16:02;;;;;;;27.17;16.00;;;;;;;10.82;89.72;100273.66;5071627;28;20188;-74
2022/10/13 04:18:28;;;;;;;21.47;15.33;;;;;;;10.78;90.12;100274.19;5075546;28;20207;-74
2022/10/13 04:20:55;;;;;;;22.20;14.80;;;;;;;10.72;90.10;100275.75;5078720;28;20200;-74
2022/10/13 04:23:22;;;;;;;26.73;17.07;;;;;;;10.69;89.81;100285.91;5078639;28;20196;-74
2022/10/13 04:25:49;;;;;;;23.63;16.13;;;;;;;10.67;90.10;100290.56;5078130;28;20251;-72
2022/10/13 04:28:15;;;;;;;22.83;15.97;;;;;;;10.64;89.77;100290.91;5078243;28;20201;-73
2022/10/13 04:30:43;;;;;;;26.17;17.30;;;;;;;10.60;90.45;100287.81;5078306;28;20192;-73
2022/10/13 04:33:10;;;;;;;28.07;16.63;;;;;;;10.60;90.65;100289.63;5079349;28;20601;-73
2022/10/13 04:35:40;;;;;;;33.00;16.40;;;;;;;10.54;90.87;100293.81;5074967;28;20191;-72
2022/10/13 04:38:07;;;;;;;30.50;17.07;;;;;;;10.49;91.16;100285.53;5078283;28;20311;-73
2022/10/13 04:40:34;;;;;;;25.43;16.90;;;;;;;10.49;90.98;100288.19;5078446;28;20245;-73
2022/10/13 04:43:01;;;;;;;24.07;16.33;;;;;;;10.58;91.17;100283.66;5078226;28;20191;-73
2022/10/13 04:45:28;;;;;;;20.37;16.63;;;;;;;10.57;90.53;100292.63;5078039;28;20192;-72
2022/10/13 04:47:57;;;;;;;28.03;17.27;;;;;;;10.47;90.51;100278.75;5078032;28;20668;-72
2022/10/13 04:50:23;;;;;;;35.70;17.43;;;;;;;10.55;90.79;100294.63;5071922;28;20661;-74
2022/10/13 04:52:50;;;;;;;30.47;17.37;;;;;;;10.64;90.76;100293.56;5077789;28;20258;-76
2022/10/13 04:55:17;;;;;;;28.13;16.10;;;;;;;10.74;90.61;100296.81;5076895;28;20189;-83
2022/10/13 04:57:44;;;;;;;31.27;16.47;;;;;;;10.78;90.13;100300.78;5077845;28;20273;-73
2022/10/13 05:00:11;;;;;;;39.90;17.60;;;;;;;10.74;89.74;100288.84;5059436;28;20612;-75
2022/10/13 05:02:38;;;;;;;43.57;18.37;;;;;;;10.82;89.86;100302.91;5075360;28;20244;-70
2022/10/13 05:05:07;;;;;;;29.97;17.27;;;;;;;10.83;89.32;100299.22;5078095;28;20207;-73
2022/10/13 05:07:34;;;;;;;42.63;17.03;;;;;;;10.89;89.08;100303.00;5069112;28;20742;-70
2022/10/13 05:10:01;;;;;;;28.60;16.23;;;;;;;11.02;89.30;100297.13;5058028;28;20553;-65
2022/10/13 05:12:27;;;;;;;27.57;16.20;;;;;;;11.10;88.41;100284.56;5057827;28;20237;-66
2022/10/13 05:14:54;;;;;;;26.07;14.93;;;;;;;11.28;88.94;100295.72;5058036;28;20259;-64
2022/10/13 05:17:21;;;;;;;21.33;16.33;;;;;;;11.40;87.32;100298.75;5057817;28;20221;-63
2022/10/13 05:19:49;;;;;;;39.43;16.43;;;;;;;11.50;88.09;100297.47;5057233;28;20570;-63
2022/10/13 05:22:17;;;;;;;34.97;19.43;;;;;;;11.58;87.04;100304.53;5064300;28;20197;-65
2022/10/13 05:24:44;;;;;;;31.80;17.77;;;;;;;11.68;86.70;100300.63;5068442;28;20199;-64
2022/10/13 05:27:12;;;;;;;27.63;14.47;;;;;;;11.68;86.46;100299.81;5074533;28;20195;-67
2022/10/13 05:29:40;;;;;;;30.70;14.80;;;;;;;11.78;86.37;100306.50;5072004;28;20260;-67
2022/10/13 05:32:07;;;;;;;28.60;14.87;;;;;;;11.87;86.09;100299.22;5068671;28;20630;-69
2022/10/13 05:34:34;;;;;;;29.57;13.43;;;;;;;11.94;85.65;100306.31;5068860;28;20209;-71
2022/10/13 05:37:01;;;;;;;30.27;12.80;;;;;;;12.02;84.64;100302.72;5063582;28;20284;-69
2022/10/13 05:39:29;;;;;;;18.23;11.67;;;;;;;12.08;84.23;100310.78;5066736;28;20673;-68
2022/10/13 05:41:56;;;;;;;94.43;18.83;;;;;;;12.12;83.66;100319.25;5057141;28;20273;-74
2022/10/13 05:44:23;;;;;;;15.53;12.10;;;;;;;12.18;83.87;100315.84;5066984;28;20192;-74
2022/10/13 05:46:50;;;;;;;29.13;13.10;;;;;;;12.14;83.38;100315.41;5070650;28;20197;-71
2022/10/13 05:49:17;;;;;;;35.73;12.97;;;;;;;12.19;83.37;100320.97;5078480;28;20206;-76
2022/10/13 05:51:47;;;;;;;20.93;11.93;;;;;;;12.29;83.56;100326.84;5060263;28;20746;-74
2022/10/13 05:54:17;;;;;;;22.17;12.07;;;;;;;12.24;82.81;100313.25;5043485;28;20243;-76
2022/10/13 05:56:50;;;;;;;24.97;12.00;;;;;;;12.43;82.54;100327.81;5045716;28;20273;-71
2022/10/13 05:59:19;;;;;;;16.90;11.07;;;;;;;12.51;81.98;100331.22;5042460;28;20183;-76
2022/10/13 06:01:47;;;;;;;20.67;11.63;;;;;;;12.60;81.78;100330.06;5062551;28;20686;-75
2022/10/13 06:04:20;;;;;;;15.30;10.33;;;;;;;12.70;80.85;100335.91;5069439;28;20192;-74
2022/10/13 06:06:48;;;;;;;17.40;11.80;;;;;;;12.82;81.47;100328.25;5068153;28;20216;-76
2022/10/13 06:09:15;;;;;;;16.97;11.33;;;;;;;13.02;81.78;100330.13;5055241;28;20732;-70
2022/10/13 06:11:42;;;;;;;36.40;13.37;;;;;;;13.30;79.21;100340.81;5068627;28;20272;-74
2022/10/13 06:14:10;;;;;;;16.77;10.53;;;;;;;13.62;80.65;100333.09;5066139;28;20664;-70
2022/10/13 06:16:37;;;;;;;20.57;10.40;;;;;;;14.42;74.81;100341.34;5069811;28;20196;-67
2022/10/13 06:19:04;;;;;;;20.80;10.67;;;;;;;15.15;72.45;100350.16;5070997;28;20220;-67
2022/10/13 06:21:31;;;;;;;20.90;8.63;;;;;;;15.47;74.92;100341.34;5072955;28;20241;-66
2022/10/13 06:23:58;;;;;;;15.00;9.73;;;;;;;16.00;71.04;100355.50;5073340;28;20250;-68
2022/10/13 06:26:24;;;;;;;24.83;11.77;;;;;;;16.51;69.06;100353.72;5073072;28;20625;-66
2022/10/13 06:28:51;;;;;;;11.60;9.73;;;;;;;17.09;65.03;100357.09;5073447;28;20257;-66
2022/10/13 06:31:19;;;;;;;13.20;10.77;;;;;;;17.41;62.32;100367.63;5073273;28;20196;-67
2022/10/13 06:33:46;;;;;;;11.17;9.40;;;;;;;17.76;60.60;100359.91;5073392;28;20200;-67
2022/10/13 06:36:13;;;;;;;21.40;9.23;;;;;;;17.88;62.00;100348.19;5072984;28;20675;-66
2022/10/13 06:38:39;;;;;;;28.40;11.73;;;;;;;17.94;59.45;100351.84;5083738;28;20218;-69
2022/10/13 06:41:07;;;;;;;21.50;10.20;;;;;;;18.16;58.51;100350.34;5067036;28;20199;-67
2022/10/13 06:43:33;;;;;;;17.03;10.43;;;;;;;18.09;60.05;100349.63;5071239;28;20721;-67
2022/10/13 06:46:01;;;;;;;16.37;10.67;;;;;;;18.18;59.73;100327.56;5066970;28;20204;-65
2022/10/13 06:48:31;;;;;;;46.80;12.40;;;;;;;18.29;58.27;100353.72;5063190;28;20200;-68
2022/10/13 06:51:02;;;;;;;33.07;10.53;;;;;;;18.31;57.86;100343.56;5050880;28;20181;-67
2022/10/13 06:53:28;;;;;;;30.30;9.93;;;;;;;18.23;56.99;100356.50;5068414;28;20276;-68
2022/10/13 06:55:56;;;;;;;18.43;10.17;;;;;;;18.16;58.32;100347.66;5055107;28;20262;-65
2022/10/13 06:58:23;;;;;;;29.40;11.13;;;;;;;18.10;58.24;100352.09;5050630;28;20762;-68
2022/10/13 07:00:50;;;;;;;21.00;10.07;;;;;;;18.12;58.41;100349.16;5065739;28;20570;-70
2022/10/13 07:03:17;;;;;;;18.97;8.97;;;;;;;18.39;56.84;100355.91;5072410;28;20227;-71
2022/10/13 07:05:45;;;;;;;31.40;17.60;;;;;;;18.36;57.48;100353.69;5052013;28;20254;-69
2022/10/13 07:08:11;;;;;;;16.87;9.90;;;;;;;18.39;56.16;100362.13;5066030;28;20285;-67
2022/10/13 07:10:39;;;;;;;16.77;10.00;;;;;;;18.17;56.63;100342.06;5067361;28;20228;-70
2022/10/13 07:13:05;;;;;;;70.77;17.67;;;;;;;18.34;58.86;100337.75;5068861;28;20256;-72
2022/10/13 07:15:32;;;;;;;14.57;9.27;;;;;;;18.48;57.06;100333.03;5067823;28;20188;-67
2022/10/13 07:17:59;;;;;;;31.40;17.60;;;;;;;18.99;59.08;100331.47;5064900;28;20220;-68
2022/10/13 07:20:26;;;;;;;11.57;8.53;;;;;;;19.16;57.07;100337.03;5066251;28;20617;-70
2022/10/13 07:22:55;;;;;;;11.00;10.10;;;;;;;19.02;57.67;100346.34;5047844;28;20499;-68
2022/10/13 07:25:21;;;;;;;12.17;9.23;;;;;;;18.99;57.92;100331.47;5055969;28;20196;-69
2022/10/13 07:27:48;;;;;;;20.30;12.33;;;;;;;19.11;58.82;100328.84;5066659;28;20559;-62
2022/10/13 07:30:15;;;;;;;141.70;21.20;;;;;;;19.50;58.23;100328.22;5068849;28;20192;-65
2022/10/13 07:32:42;;;;;;;16.33;9.67;;;;;;;19.77;56.16;100329.41;5066945;28;21007;-63
2022/10/13 07:35:09;;;;;;;21.07;10.33;;;;;;;20.14;55.85;100323.50;5067704;28;20245;-62
2022/10/13 07:37:36;;;;;;;14.23;9.70;;;;;;;20.46;55.81;100318.53;5060080;28;20224;-61
2022/10/13 07:40:06;;;;;;;19.93;11.20;;;;;;;20.78;53.28;100335.88;5071085;28;20196;-61
2022/10/13 07:42:33;;;;;;;16.37;10.63;;;;;;;20.84;53.90;100332.22;5071542;28;20660;-61
2022/10/13 07:44:59;;;;;;;15.33;9.17;;;;;;;20.49;53.92;100318.03;5071559;28;20317;-60
2022/10/13 07:47:26;;;;;;;10.83;8.93;;;;;;;20.36;55.67;100310.22;5071844;28;20241;-61
2022/10/13 07:49:54;;;;;;;13.50;9.23;;;;;;;20.59;54.89;100308.25;5069699;28;20587;-62
2022/10/13 07:52:21;;;;;;;15.63;9.60;;;;;;;21.07;52.62;100305.09;5071058;28;20203;-61
2022/10/13 07:54:48;;;;;;;10.10;8.60;;;;;;;21.13;52.82;100303.31;5071495;28;20622;-62
2022/10/13 07:57:16;;;;;;;11.07;8.97;;;;;;;21.29;52.12;100297.09;5071722;28;20646;-61
2022/10/13 07:59:43;;;;;;;10.43;8.67;;;;;;;21.36;52.79;100298.53;5062652;28;20200;-61
2022/10/13 08:02:10;;;;;;;18.10;7.60;;;;;;;21.66;53.30;100292.78;5061642;28;20196;-59
2022/10/13 08:04:36;;;;;;;22.23;7.77;;;;;;;22.14;51.65;100301.91;5065723;28;20279;-61
2022/10/13 08:07:05;;;;;;;22.40;9.50;;;;;;;22.04;50.04;100299.06;5064382;28;20199;-62
2022/10/13 08:09:32;;;;;;;11.37;9.07;;;;;;;22.05;49.77;100292.56;5056678;28;20199;-62
2022/10/13 08:11:58;;;;;;;7.47;6.60;;;;;;;22.24;51.13;100291.19;5047234;28;20507;-62
2022/10/13 08:14:26;;;;;;;18.70;7.73;;;;;;;22.75;48.70;100281.78;5048540;28;20200;-63
2022/10/13 08:16:53;;;;;;;12.53;7.20;;;;;;;23.03;46.59;100285.00;5052863;28;20196;-62
2022/10/13 08:19:20;;;;;;;7.07;6.47;;;;;;;23.09;46.36;100277.75;5069788;28;20711;-62
2022/10/13 08:21:47;;;;;;;10.80;6.77;;;;;;;22.68;46.05;100278.44;5069188;28;20224;-69
2022/10/13 08:24:16;;;;;;;76.43;10.93;;;;;;;22.68;45.91;100271.16;5069183;28;20196;-68
2022/10/13 08:26:45;;;;;;;12.90;6.50;;;;;;;22.46;47.25;100274.94;5074411;28;20738;-69
2022/10/13 08:29:13;;;;;;;53.73;9.93;;;;;;;22.47;46.84;100268.47;5088939;28;20236;-67
2022/10/13 08:31:41;;;;;;;13.27;7.53;;;;;;;22.63;47.08;100265.69;5089145;28;20252;-70
2022/10/13 08:34:08;;;;;;;16.67;7.10;;;;;;;22.86;45.91;100268.06;5086757;28;20206;-70
2022/10/13 08:36:35;;;;;;;7.40;6.53;;;;;;;23.11;44.10;100252.03;5086738;28;20191;-70
2022/10/13 08:39:02;;;;;;;12.70;7.10;;;;;;;23.21;43.36;100262.16;5088058;28;20598;-71
2022/10/13 08:41:32;;;;;;;29.23;8.00;;;;;;;23.37;43.53;100259.31;5085446;28;20727;-71
2022/10/13 08:44:04;;;;;;;11.53;7.00;;;;;;;23.24;43.15;100265.16;5082631;28;20247;-71
2022/10/13 08:46:38;;;;;;;13.80;6.67;;;;;;;23.08;43.26;100260.66;5082993;28;20188;-71
2022/10/13 08:49:06;;;;;;;77.17;12.97;;;;;;;23.10;44.21;100250.38;5077876;28;20188;-72
2022/10/13 08:51:35;;;;;;;21.70;7.63;;;;;;;23.31;43.14;100257.63;5088252;28;20222;-69
2022/10/13 08:54:02;;;;;;;29.03;7.17;;;;;;;23.60;43.70;100253.50;5082814;28;20284;-71
2022/10/13 08:56:32;;;;;;;7.43;5.97;;;;;;;23.87;42.06;100259.63;5077247;28;20192;-71
2022/10/13 08:59:00;;;;;;;14.47;7.83;;;;;;;24.05;41.37;100259.19;5066120;28;20217;-71
2022/10/13 09:01:31;;;;;;;12.77;6.63;;;;;;;24.13;41.56;100264.09;5047060;28;20237;-69
2022/10/13 09:04:07;;;;;;;8.37;6.10;;;;;;;23.87;41.06;100259.63;5053891;28;20557;-72
2022/10/13 09:06:39;;;;;;;12.27;6.90;;;;;;;23.89;42.19;100262.88;5055540;28;20188;-69
2022/10/13 09:09:09;;;;;;;10.30;6.17;;;;;;;23.92;42.19;100256.13;5074696;28;20208;-70
2022/10/13 09:11:38;;;;;;;7.90;6.17;;;;;;;24.20;41.46;100253.81;5091828;28;20607;-71
2022/10/13 09:14:06;;;;;;;6.30;5.70;;;;;;;24.50;39.54;100253.91;5090669;28;20193;-72
2022/10/13 09:16:36;;;;;;;8.53;6.27;;;;;;;24.43;40.22;100247.91;5090758;28;20193;-68
2022/10/13 09:19:24;;;;;;;10.47;6.10;;;;;;;24.48;39.46;100247.94;5071415;28;20243;-71
2022/10/13 09:21:55;;;;;;;8.77;5.57;;;;;;;24.63;40.71;100247.97;5071330;28;20235;-69
2022/10/13 09:24:24;;;;;;;5.17;4.77;;;;;;;24.73;39.44;100231.72;5065966;28;20202;-71
2022/10/13 09:27:04;;;;;;;5.40;4.83;;;;;;;24.65;38.28;100234.94;5071119;28;20202;-70
2022/10/13 09:29:31;;;;;;;8.17;4.57;;;;;;;24.61;38.56;100233.03;5070665;28;20195;-71
2022/10/13 09:32:14;;;;;;;8.10;4.83;;;;;;;24.74;38.47;100236.03;5067997;28;20623;-72
2022/10/13 09:34:41;;;;;;;9.20;5.27;;;;;;;24.80;39.64;100226.81;5071730;28;20194;-70
2022/10/13 09:37:18;;;;;;;14.23;5.10;;;;;;;24.93;38.92;100231.72;5070870;28;20219;-71
2022/10/13 09:39:45;;;;;;;5.30;4.80;;;;;;;25.09;37.67;100232.53;5071120;28;20301;-71
2022/10/13 09:42:20;;;;;;;5.17;4.80;;;;;;;24.99;37.79;100227.06;5072574;28;20227;-69
2022/10/13 09:44:48;;;;;;;5.60;5.20;;;;;;;24.87;38.32;100221.13;5065275;28;20623;-70
2022/10/13 09:47:20;;;;;;;10.97;5.30;;;;;;;24.65;38.63;100207.78;5052258;28;20667;-70
2022/10/13 09:49:59;;;;;;;7.37;5.73;;;;;;;24.24;39.15;100216.91;5051789;28;20287;-69
2022/10/13 09:52:27;;;;;;;10.90;5.47;;;;;;;23.58;40.58;100198.69;5052776;28;20190;-71
2022/10/13 09:54:57;;;;;;;19.03;6.07;;;;;;;23.30;41.63;100204.47;5053132;28;20203;-68
2022/10/13 09:57:31;;;;;;;29.43;8.73;;;;;;;22.93;41.92;100194.69;5062209;28;20247;-69
2022/10/13 10:00:05;;;;;;;13.70;5.97;;;;;;;22.78;43.17;100184.53;5050427;28;20264;-75
2022/10/13 10:02:35;;;;;;;6.13;4.93;;;;;;;23.07;43.70;100183.13;5066000;28;20228;-76
2022/10/13 10:05:07;;;;;;;9.67;5.37;;;;;;;23.25;41.25;100188.19;5069478;28;20283;-75
2022/10/13 10:07:35;;;;;;;9.27;5.53;;;;;;;23.41;42.47;100178.25;5068568;28;20268;-78
2022/10/13 10:10:05;;;;;;;6.97;5.43;;;;;;;23.53;40.51;100149.81;5066956;28;20578;-76
2022/10/13 10:12:36;;;;;;;6.53;4.87;;;;;;;23.83;41.07;100168.97;5068005;28;20181;-72
2022/10/13 10:15:09;;;;;;;27.97;6.43;;;;;;;23.96;40.33;100165.78;5069176;28;20201;-76
2022/10/13 10:17:41;;;;;;;12.07;5.93;;;;;;;23.86;40.18;100162.19;5069938;28;20185;-79
2022/10/13 10:20:36;;;;;;;8.87;5.30;;;;;;;23.89;39.66;100159.75;5068876;28;20885;-74
2022/10/13 10:23:07;;;;;;;11.23;5.83;;;;;;;23.92;39.79;100156.53;5068280;28;20197;-78
2022/10/13 10:25:41;;;;;;;19.97;6.53;;;;;;;23.75;40.30;100142.34;5068202;28;20197;-74
2022/10/13 10:28:34;;;;;;;5.13;4.63;;;;;;;23.90;40.49;100145.09;5057008;28;20673;-75
2022/10/13 10:31:09;;;;;;;6.57;5.40;;;;;;;24.05;39.20;100137.03;5047680;28;20179;-73
2022/10/13 10:33:49;;;;;;;4.73;4.33;;;;;;;24.22;39.42;100136.78;5048993;28;20199;-71
2022/10/13 10:36:22;;;;;;;5.77;5.17;;;;;;;24.41;39.14;100127.84;5049476;28;20290;-71
2022/10/13 10:38:52;;;;;;;7.53;6.03;;;;;;;24.60;38.63;100126.28;5048838;28;20264;-73
2022/10/13 10:41:35;;;;;;;13.43;5.63;;;;;;;24.68;38.23;100120.28;5049596;28;20198;-73
2022/10/13 10:44:05;;;;;;;8.00;5.20;;;;;;;24.72;38.52;100118.66;5047360;28;20647;-74
2022/10/13 10:46:36;;;;;;;12.53;5.30;;;;;;;24.93;38.95;100116.72;5073354;28;20235;-76
2022/10/13 10:49:15;;;;;;;6.93;6.37;;;;;;;25.02;37.31;100119.72;5078243;28;20194;-74
2022/10/13 10:51:42;;;;;;;6.70;6.10;;;;;;;24.75;36.99;100115.38;5068621;28;20622;-72
2022/10/13 10:54:26;;;;;;;6.13;5.53;;;;;;;24.56;38.42;100106.13;5073668;28;20271;-81
2022/10/13 10:56:56;;;;;;;11.13;5.77;;;;;;;24.82;38.13;100105.06;5069222;28;20272;-72
2022/10/13 10:59:31;;;;;;;35.23;8.37;;;;;;;24.78;37.66;100093.09;5056412;28;20260;-72
2022/10/13 11:02:14;;;;;;;39.37;8.73;;;;;;;24.67;38.26;100090.66;5062776;28;20245;-76
2022/10/13 11:04:43;;;;;;;18.57;6.37;;;;;;;24.73;38.69;100084.94;5056278;28;20195;-75
2022/10/13 11:07:14;;;;;;;14.67;6.00;;;;;;;24.70;38.97;100080.06;5060406;28;20614;-72
2022/10/13 11:10:17;;;;;;;8.83;5.23;;;;;;;24.84;38.58;100075.69;5071225;28;20574;-72
2022/10/13 11:13:26;;;;;;;7.50;5.20;;;;;;;25.11;38.37;100074.53;5070146;28;20182;-74
2022/10/13 11:15:54;;;;;;;5.90;5.30;;;;;;;25.28;37.39;100070.44;5069444;28;20192;-72
2022/10/13 11:18:57;;;;;;;7.70;5.23;;;;;;;25.35;37.36;100067.44;5068832;28;20231;-72
2022/10/13 11:21:24;;;;;;;57.57;9.03;;;;;;;25.45;37.15;100064.66;5068126;28;20190;-72
2022/10/13 11:23:51;;;;;;;10.53;5.70;;;;;;;25.36;36.56;100050.84;5066993;28;20282;-73
2022/10/13 11:26:40;;;;;;;10.20;5.60;;;;;;;25.40;36.88;100053.78;5070069;28;20261;-73